createdAt,value
2023-03-17T00:00:52.110Z,67.83
2023-03-17T00:03:25.473Z,67.78
2023-03-17T00:05:57.164Z,67.83
2023-03-17T00:08:29.662Z,67.83
2023-03-17T00:11:00.052Z,67.62
2023-03-17T00:13:32.027Z,67.67
2023-03-17T00:16:04.276Z,67.58
2023-03-17T00:18:35.443Z,67.66
2023-03-17T00:21:06.361Z,67.72
2023-03-17T00:23:37.058Z,67.68
2023-03-17T00:26:07.566Z,67.74
2023-03-17T00:28:38.162Z,67.58
2023-03-17T00:31:15.536Z,67.69
2023-03-17T00:33:48.032Z,67.54
2023-03-17T00:36:21.317Z,67.48
2023-03-17T00:38:52.555Z,67.51
2023-03-17T00:41:23.550Z,67.46
2023-03-17T00:43:53.753Z,67.60
2023-03-17T00:46:27.465Z,67.55
2023-03-17T00:48:57.889Z,67.37
2023-03-17T00:51:28.115Z,67.62
2023-03-17T00:53:58.461Z,67.64
2023-03-17T00:56:31.505Z,67.61
2023-03-17T00:59:02.788Z,67.70
2023-03-17T01:01:33.021Z,67.79
2023-03-17T01:04:04.331Z,67.82
2023-03-17T01:06:34.577Z,67.98
2023-03-17T01:09:06.270Z,68.13
2023-03-17T01:11:36.740Z,68.02
2023-03-17T01:14:06.959Z,68.15
2023-03-17T01:16:37.587Z,68.26
2023-03-17T01:19:07.983Z,68.34
2023-03-17T01:21:38.254Z,68.53
2023-03-17T01:24:09.610Z,68.50
2023-03-17T01:26:40.500Z,68.53
2023-03-17T01:29:11.138Z,68.39
2023-03-17T01:31:41.485Z,68.31
2023-03-17T01:34:13.225Z,68.44
2023-03-17T01:36:43.344Z,68.51
2023-03-17T01:39:14.370Z,68.57
2023-03-17T01:41:45.534Z,68.53
2023-03-17T01:44:18.837Z,68.48
2023-03-17T01:46:47.747Z,68.30
2023-03-17T01:49:22.192Z,68.24
2023-03-17T01:52:00.794Z,68.25
2023-03-17T01:54:36.819Z,68.22
2023-03-17T01:57:12.439Z,68.18
2023-03-17T01:59:46.342Z,68.19
2023-03-17T02:02:20.354Z,68.20
2023-03-17T02:04:52.024Z,68.27
2023-03-17T02:07:22.687Z,68.20
2023-03-17T02:09:53.588Z,68.32
2023-03-17T02:12:25.386Z,68.41
2023-03-17T02:14:55.736Z,68.44
2023-03-17T02:17:27.515Z,68.23
2023-03-17T02:20:10.014Z,68.07
2023-03-17T02:22:40.129Z,68.28
2023-03-17T02:25:10.587Z,68.41
2023-03-17T02:27:45.168Z,68.37
2023-03-17T02:30:19.909Z,68.62
2023-03-17T02:32:50.147Z,68.53
2023-03-17T02:35:21.750Z,68.60
2023-03-17T02:37:51.976Z,68.73
2023-03-17T02:40:24.608Z,68.91
2023-03-17T02:42:54.943Z,68.96
2023-03-17T02:45:25.794Z,69.15
2023-03-17T02:47:57.402Z,69.08
2023-03-17T02:50:29.120Z,68.98
2023-03-17T02:52:59.464Z,68.83
2023-03-17T02:55:29.689Z,68.63
2023-03-17T02:58:01.924Z,68.43
2023-03-17T03:00:32.648Z,68.60
2023-03-17T03:03:02.961Z,68.30
2023-03-17T03:05:33.106Z,68.11
2023-03-17T03:08:03.313Z,67.88
2023-03-17T03:10:33.457Z,67.96
2023-03-17T03:13:03.576Z,67.90
2023-03-17T03:15:33.814Z,67.95
2023-03-17T03:18:04.041Z,67.90
2023-03-17T03:20:34.195Z,67.81
2023-03-17T03:23:04.431Z,67.83
2023-03-17T03:25:34.718Z,67.85
2023-03-17T03:28:04.937Z,67.76
2023-03-17T03:30:36.534Z,67.52
2023-03-17T03:33:07.767Z,67.58
2023-03-17T03:35:38.101Z,67.66
2023-03-17T03:38:08.408Z,67.72
2023-03-17T03:40:39.293Z,67.84
2023-03-17T03:43:21.829Z,67.85
2023-03-17T03:45:54.503Z,68.06
2023-03-17T03:48:24.800Z,68.19
2023-03-17T03:50:59.595Z,68.13
2023-03-17T03:53:30.260Z,68.37
2023-03-17T03:56:00.829Z,68.21
2023-03-17T03:58:31.045Z,68.48
2023-03-17T04:01:02.337Z,68.65
2023-03-17T04:03:32.988Z,68.72
2023-03-17T04:06:03.438Z,68.73
2023-03-17T04:08:34.245Z,68.85
2023-03-17T04:11:04.484Z,68.77
2023-03-17T04:13:34.593Z,69.07
2023-03-17T04:16:05.813Z,69.21
2023-03-17T04:18:36.325Z,69.23
2023-03-17T04:21:08.210Z,69.36
2023-03-17T04:23:38.476Z,69.26
2023-03-17T04:26:09.695Z,69.13
2023-03-17T04:28:40.060Z,69.11
2023-03-17T04:31:11.514Z,69.32
2023-03-17T04:33:42.225Z,69.46
2023-03-17T04:36:17.650Z,69.51
2023-03-17T04:38:47.852Z,69.46
2023-03-17T04:41:18.127Z,69.53
2023-03-17T04:43:48.283Z,69.50
2023-03-17T04:46:18.541Z,69.30
2023-03-17T04:48:48.698Z,69.40
2023-03-17T04:51:18.894Z,69.77
2023-03-17T04:53:49.361Z,69.81
2023-03-17T04:56:19.565Z,69.90
2023-03-17T04:58:50.369Z,69.68
2023-03-17T05:01:20.484Z,69.77
2023-03-17T05:03:50.636Z,69.62
2023-03-17T05:06:20.912Z,69.85
2023-03-17T05:08:51.350Z,69.94
2023-03-17T05:11:21.563Z,69.86
2023-03-17T05:13:51.835Z,69.85
2023-03-17T05:16:22.158Z,69.87
2023-03-17T05:18:52.337Z,70.12
2023-03-17T05:21:22.460Z,70.25
2023-03-17T05:23:54.896Z,70.27
2023-03-17T05:26:25.119Z,70.33
2023-03-17T05:28:55.318Z,70.54
2023-03-17T05:31:25.470Z,70.51
2023-03-17T05:33:56.523Z,70.52
2023-03-17T05:36:27.200Z,70.59
2023-03-17T05:38:57.764Z,70.86
2023-03-17T05:41:28.272Z,70.75
2023-03-17T05:43:58.468Z,70.67
2023-03-17T05:46:28.775Z,70.88
2023-03-17T05:48:58.912Z,70.94
2023-03-17T05:51:29.065Z,71.06
2023-03-17T05:53:59.288Z,71.11
2023-03-17T05:56:33.380Z,71.10
2023-03-17T05:59:04.513Z,71.10
2023-03-17T06:01:34.660Z,71.26
2023-03-17T06:04:04.887Z,71.19
2023-03-17T06:06:35.079Z,71.07
2023-03-17T06:09:05.998Z,71.03
2023-03-17T06:11:36.857Z,71.49
2023-03-17T06:14:07.268Z,71.50
2023-03-17T06:16:37.734Z,70.79
2023-03-17T06:19:07.971Z,69.82
2023-03-17T06:21:38.512Z,68.77
2023-03-17T06:24:09.776Z,67.04
2023-03-17T06:26:40.311Z,65.96
2023-03-17T06:29:12.182Z,63.96
2023-03-17T06:31:43.127Z,62.11
2023-03-17T06:34:13.344Z,60.42
2023-03-17T06:36:44.000Z,59.30
2023-03-17T06:39:14.432Z,58.97
2023-03-17T06:41:45.031Z,58.55
2023-03-17T06:44:15.201Z,57.10
2023-03-17T06:46:45.481Z,56.99
2023-03-17T06:49:15.865Z,56.59
2023-03-17T06:51:46.561Z,56.06
2023-03-17T06:54:18.627Z,55.82
2023-03-17T06:56:49.752Z,54.78
2023-03-17T06:59:20.260Z,54.67
2023-03-17T07:01:51.815Z,54.52
2023-03-17T07:04:22.122Z,53.28
2023-03-17T07:06:52.501Z,52.20
2023-03-17T07:09:23.128Z,51.90
2023-03-17T07:11:53.937Z,50.13
2023-03-17T07:14:24.236Z,49.46
2023-03-17T07:16:55.594Z,49.33
2023-03-17T07:19:26.465Z,49.10
2023-03-17T07:21:57.321Z,49.67
2023-03-17T07:24:28.056Z,49.46
2023-03-17T07:26:58.306Z,48.98
2023-03-17T07:29:29.282Z,48.35
2023-03-17T07:31:59.541Z,48.08
2023-03-17T07:34:31.013Z,46.59
2023-03-17T07:37:02.033Z,46.98
2023-03-17T07:39:32.846Z,46.89
2023-03-17T07:42:03.445Z,46.93
2023-03-17T07:44:33.698Z,46.07
2023-03-17T07:47:05.852Z,46.62
2023-03-17T07:49:41.592Z,46.97
2023-03-17T07:52:15.157Z,45.32
2023-03-17T07:54:47.476Z,46.32
2023-03-17T07:57:19.757Z,45.64
2023-03-17T07:59:52.422Z,44.71
2023-03-17T08:02:23.489Z,45.22
2023-03-17T08:04:55.424Z,44.55
2023-03-17T08:07:27.820Z,44.52
2023-03-17T08:09:59.413Z,44.61
2023-03-17T08:12:32.618Z,44.53
2023-03-17T08:15:04.414Z,44.33
2023-03-17T08:17:37.682Z,43.66
2023-03-17T08:20:11.772Z,43.89
2023-03-17T08:22:44.025Z,43.67
2023-03-17T08:25:15.936Z,43.63
2023-03-17T08:27:48.515Z,43.24
2023-03-17T08:30:21.894Z,42.48
2023-03-17T08:32:55.512Z,41.73
2023-03-17T08:35:27.568Z,41.13
2023-03-17T08:38:00.460Z,41.97
2023-03-17T08:40:32.328Z,41.89
2023-03-17T08:43:05.496Z,42.34
2023-03-17T08:53:15.391Z,41.46
2023-03-17T08:55:45.654Z,41.01
2023-03-17T08:58:15.874Z,41.03
2023-03-17T09:00:46.890Z,40.99
2023-03-17T09:03:17.280Z,41.26
2023-03-17T09:05:47.539Z,42.14
2023-03-17T09:08:18.492Z,42.09
2023-03-17T09:10:49.623Z,41.64
2023-03-17T09:13:20.274Z,40.97
2023-03-17T09:15:52.038Z,40.95
2023-03-17T09:18:23.023Z,40.67
2023-03-17T09:20:53.324Z,41.42
2023-03-17T09:23:25.286Z,41.18
2023-03-17T09:25:55.519Z,41.56
2023-03-17T09:28:25.824Z,41.38
2023-03-17T09:31:01.192Z,41.12
2023-03-17T09:33:31.822Z,41.40
2023-03-17T09:36:02.130Z,41.13
2023-03-17T09:38:33.489Z,42.05
2023-03-17T09:41:13.053Z,42.20
2023-03-17T09:43:47.815Z,42.45
2023-03-17T09:46:29.782Z,42.95
2023-03-17T09:49:03.326Z,42.69
2023-03-17T09:51:34.414Z,42.62
2023-03-17T09:54:05.881Z,42.97
2023-03-17T09:56:37.615Z,42.82
2023-03-17T09:59:13.388Z,42.70
2023-03-17T10:01:45.381Z,42.53
2023-03-17T10:04:17.586Z,42.48
2023-03-17T10:06:49.562Z,42.65
2023-03-17T10:09:27.143Z,42.33
2023-03-17T10:12:04.780Z,41.72
2023-03-17T10:14:51.185Z,41.41
2023-03-17T10:17:23.617Z,41.77
2023-03-17T10:19:59.714Z,41.98
2023-03-17T10:22:31.923Z,41.98
2023-03-17T10:25:07.452Z,42.42
2023-03-17T10:27:39.127Z,42.85
2023-03-17T10:30:17.296Z,43.28
2023-03-17T10:32:48.248Z,43.31
2023-03-17T10:35:19.597Z,42.77
2023-03-17T10:37:49.978Z,43.25
2023-03-17T10:40:25.778Z,42.80
2023-03-17T10:43:01.626Z,43.31
2023-03-17T10:45:32.736Z,43.58
2023-03-17T10:48:04.320Z,43.48
2023-03-17T10:50:35.776Z,43.35
2023-03-17T10:53:10.740Z,43.10
2023-03-17T10:55:45.501Z,42.83
2023-03-17T10:58:18.923Z,42.79
2023-03-17T11:00:57.708Z,42.99
2023-03-17T11:03:31.441Z,42.74
2023-03-17T11:06:04.499Z,42.25
2023-03-17T11:08:36.420Z,42.53
2023-03-17T11:11:10.537Z,42.23
2023-03-17T11:13:40.982Z,41.94
2023-03-17T11:16:22.055Z,43.11
2023-03-17T11:18:54.117Z,43.03
2023-03-17T11:21:27.764Z,42.33
2023-03-17T11:24:02.088Z,41.87
2023-03-17T11:26:48.515Z,41.91
2023-03-17T11:29:41.483Z,41.86
2023-03-17T11:32:22.283Z,42.17
2023-03-17T11:35:02.248Z,41.89
2023-03-17T11:37:43.668Z,41.09
2023-03-17T11:40:20.511Z,41.17
2023-03-17T11:42:57.098Z,40.89
2023-03-17T11:45:29.083Z,40.64
2023-03-17T11:48:07.832Z,40.98
2023-03-17T11:50:41.875Z,40.56
2023-03-17T11:53:22.508Z,40.45
2023-03-17T11:55:57.710Z,41.15
2023-03-17T11:58:33.567Z,40.94
2023-03-17T12:01:08.963Z,40.77
2023-03-17T12:03:43.627Z,40.40
2023-03-17T12:06:17.916Z,40.62
2023-03-17T12:08:53.482Z,40.60
2023-03-17T12:11:28.698Z,40.55
2023-03-17T12:14:03.353Z,40.33
2023-03-17T12:16:37.800Z,40.52
2023-03-17T12:19:14.682Z,40.40
2023-03-17T12:21:50.259Z,40.78
2023-03-17T12:24:23.967Z,41.04
2023-03-17T12:26:58.892Z,41.44
2023-03-17T12:29:36.447Z,41.21
2023-03-17T12:32:10.238Z,40.82
2023-03-17T12:34:45.005Z,40.75
2023-03-17T12:37:15.667Z,41.02
2023-03-17T12:39:50.518Z,41.03
2023-03-17T12:42:31.244Z,41.26
2023-03-17T12:45:20.567Z,41.29
2023-03-17T12:48:01.803Z,41.45
2023-03-17T12:50:55.839Z,41.16
2023-03-17T12:53:30.886Z,41.25
2023-03-17T12:56:04.012Z,41.84
2023-03-17T12:58:36.869Z,41.76
2023-03-17T13:01:17.308Z,41.40
2023-03-17T13:04:02.085Z,41.83
2023-03-17T13:06:38.207Z,42.01
2023-03-17T13:09:35.687Z,41.57
2023-03-17T13:12:08.648Z,41.54
2023-03-17T13:14:45.919Z,41.58
2023-03-17T13:17:33.175Z,41.26
2023-03-17T13:20:15.592Z,41.72
2023-03-17T13:23:11.365Z,42.11
2023-03-17T13:25:53.900Z,41.87
2023-03-17T13:28:43.259Z,42.15
2023-03-17T13:31:30.710Z,42.10
2023-03-17T13:34:09.746Z,42.11
2023-03-17T13:36:58.021Z,42.33
2023-03-17T13:40:00.564Z,42.64
2023-03-17T13:42:50.711Z,42.93
2023-03-17T13:45:27.140Z,42.50
2023-03-17T13:48:32.146Z,42.67
2023-03-17T13:51:15.021Z,42.47
2023-03-17T13:53:45.185Z,42.46
2023-03-17T13:56:22.889Z,42.33
2023-03-17T13:59:06.085Z,42.98
2023-03-17T14:01:41.745Z,42.74
2023-03-17T14:04:21.277Z,42.33
2023-03-17T14:06:54.171Z,42.46
2023-03-17T14:09:34.418Z,42.08
2023-03-17T14:12:07.683Z,42.00
2023-03-17T14:14:44.313Z,42.19
2023-03-17T14:17:17.758Z,42.01
2023-03-17T14:20:05.174Z,41.05
2023-03-17T14:22:39.860Z,39.30
2023-03-17T14:25:18.430Z,38.66
2023-03-17T14:27:51.705Z,39.50
2023-03-17T14:30:24.943Z,39.67
2023-03-17T14:33:01.400Z,40.12
2023-03-17T14:35:36.245Z,40.27
2023-03-17T14:38:17.244Z,40.31
2023-03-17T14:41:00.552Z,40.82
2023-03-17T14:43:30.747Z,40.48
2023-03-17T14:46:04.307Z,41.46
2023-03-17T14:48:39.004Z,41.35
2023-03-17T14:51:24.777Z,41.55
2023-03-17T14:53:57.697Z,42.12
2023-03-17T14:56:32.450Z,42.09
2023-03-17T14:59:09.341Z,42.08
2023-03-17T15:01:43.558Z,42.58
2023-03-17T15:04:16.840Z,42.53
2023-03-17T15:06:51.854Z,42.93
2023-03-17T15:09:25.902Z,42.78
2023-03-17T15:11:59.081Z,42.80
2023-03-17T15:14:32.937Z,43.05
2023-03-17T15:17:04.541Z,43.39
2023-03-17T15:19:40.231Z,43.15
2023-03-17T15:22:25.717Z,43.25
2023-03-17T15:25:01.561Z,43.80
2023-03-17T15:27:32.523Z,43.72
2023-03-17T15:30:03.540Z,43.66
2023-03-17T15:32:33.800Z,43.55
2023-03-17T15:35:04.400Z,44.67
2023-03-17T15:37:35.810Z,45.27
2023-03-17T15:40:09.354Z,45.68
2023-03-17T15:42:41.258Z,45.45
2023-03-17T15:45:16.725Z,44.68
2023-03-17T15:47:48.572Z,44.75
2023-03-17T15:50:23.851Z,44.98
2023-03-17T15:52:55.929Z,44.84
2023-03-17T15:55:29.558Z,44.28
2023-03-17T15:58:00.658Z,45.39
2023-03-17T16:00:31.601Z,44.73
2023-03-17T16:03:05.705Z,45.76
2023-03-17T16:05:36.952Z,46.24
2023-03-17T16:08:07.577Z,45.52
2023-03-17T16:10:37.824Z,45.59
2023-03-17T16:13:08.021Z,45.68
2023-03-17T16:15:40.892Z,47.47
2023-03-17T16:27:37.712Z,47.13
2023-03-17T16:30:11.316Z,47.91
2023-03-17T16:32:41.522Z,47.65
2023-03-17T16:35:16.875Z,47.85
2023-03-17T16:37:47.350Z,48.07
2023-03-17T16:40:26.953Z,49.09
2023-03-17T16:42:58.116Z,48.96
2023-03-17T16:45:32.720Z,49.00
2023-03-17T16:48:04.596Z,49.04
2023-03-17T16:50:35.848Z,49.46
2023-03-17T16:53:06.454Z,49.70
2023-03-17T16:55:37.517Z,50.08
2023-03-17T16:58:16.222Z,49.85
2023-03-17T17:00:46.585Z,50.10
2023-03-17T17:03:18.117Z,50.58
2023-03-17T17:05:48.464Z,50.33
2023-03-17T17:08:18.645Z,50.47
2023-03-17T17:10:48.819Z,50.99
2023-03-17T17:13:19.175Z,51.31
2023-03-17T17:15:50.102Z,51.33
2023-03-17T17:18:21.763Z,51.70
2023-03-17T17:20:52.798Z,51.88
2023-03-17T17:23:24.527Z,52.09
2023-03-17T17:25:55.372Z,52.25
2023-03-17T17:28:27.034Z,52.43
2023-03-17T17:30:58.462Z,52.76
2023-03-17T17:33:28.993Z,53.10
2023-03-17T17:35:59.333Z,52.72
2023-03-17T17:38:31.039Z,52.83
2023-03-17T17:41:05.584Z,52.90
2023-03-17T17:43:36.101Z,53.11
2023-03-17T17:46:07.708Z,53.00
2023-03-17T17:48:37.882Z,53.38
2023-03-17T17:51:08.468Z,53.63
2023-03-17T17:53:38.832Z,53.80
2023-03-17T17:56:12.055Z,53.82
2023-03-17T17:58:42.636Z,54.03
2023-03-17T18:01:16.765Z,54.19
2023-03-17T18:03:47.302Z,54.49
2023-03-17T18:06:18.264Z,54.78
2023-03-17T18:08:48.476Z,54.78
2023-03-17T18:11:18.636Z,55.01
2023-03-17T18:13:48.878Z,55.14
2023-03-17T18:16:19.977Z,55.20
2023-03-17T18:18:50.704Z,55.39
2023-03-17T18:21:21.372Z,55.36
2023-03-17T18:23:55.133Z,55.62
2023-03-17T18:26:25.650Z,55.69
2023-03-17T18:28:55.947Z,55.76
2023-03-17T18:31:28.826Z,55.56
2023-03-17T18:33:58.745Z,55.71
2023-03-17T18:36:29.118Z,55.89
2023-03-17T18:39:00.192Z,56.06
2023-03-17T18:41:30.735Z,55.91
2023-03-17T18:44:01.154Z,55.80
2023-03-17T18:46:31.520Z,55.64
2023-03-17T18:49:01.847Z,55.87
2023-03-17T18:51:32.123Z,56.11
2023-03-17T18:54:02.941Z,56.30
2023-03-17T18:56:33.279Z,56.51
2023-03-17T18:59:03.619Z,56.14
2023-03-17T19:01:33.908Z,56.45
2023-03-17T19:04:05.685Z,56.50
2023-03-17T19:06:39.288Z,56.65
2023-03-17T19:09:10.277Z,56.56
2023-03-17T19:11:41.241Z,56.67
2023-03-17T19:14:11.805Z,56.74
2023-03-17T19:16:42.069Z,56.79
2023-03-17T19:19:12.281Z,56.83
2023-03-17T19:21:42.540Z,56.66
2023-03-17T19:24:14.152Z,56.83
2023-03-17T19:26:44.473Z,56.76
2023-03-17T19:29:15.382Z,56.62
2023-03-17T19:31:48.414Z,56.77
2023-03-17T19:34:18.951Z,56.69
2023-03-17T19:36:49.510Z,56.90
2023-03-17T19:39:20.034Z,57.12
2023-03-17T19:41:53.284Z,57.33
2023-03-17T19:44:24.177Z,57.24
2023-03-17T19:46:54.395Z,57.00
2023-03-17T19:49:25.282Z,56.85
2023-03-17T19:51:55.571Z,56.83
2023-03-17T19:54:25.864Z,57.05
2023-03-17T19:56:56.414Z,57.16
2023-03-17T19:59:26.876Z,57.14
2023-03-17T20:01:57.221Z,57.17
2023-03-17T20:04:27.680Z,57.62
2023-03-17T20:06:58.233Z,57.59
2023-03-17T20:09:30.933Z,57.87
2023-03-17T20:12:01.956Z,57.75
2023-03-17T20:14:32.482Z,57.82
2023-03-17T20:17:02.685Z,57.97
2023-03-17T20:19:33.224Z,58.01
2023-03-17T20:22:03.482Z,57.91
2023-03-17T20:24:34.527Z,58.21
2023-03-17T20:27:07.228Z,57.84
2023-03-17T20:29:37.799Z,58.02
2023-03-17T20:32:08.424Z,58.27
2023-03-17T20:34:39.229Z,58.24
2023-03-17T20:37:09.959Z,57.99
2023-03-17T20:39:41.171Z,58.27
2023-03-17T20:42:14.386Z,58.07
2023-03-17T20:44:45.001Z,58.14
2023-03-17T20:47:15.607Z,57.64
2023-03-17T20:49:47.578Z,57.73
2023-03-17T20:52:17.879Z,57.79
2023-03-17T20:54:48.656Z,57.64
2023-03-17T20:57:19.131Z,57.70
2023-03-17T20:59:52.019Z,57.52
2023-03-17T21:02:22.116Z,57.44
2023-03-17T21:04:52.953Z,57.44
2023-03-17T21:07:24.230Z,57.36
2023-03-17T21:09:56.603Z,57.67
2023-03-17T21:12:27.165Z,57.67
2023-03-17T21:14:58.232Z,57.69
2023-03-17T21:17:28.775Z,57.75
2023-03-17T21:19:59.333Z,57.96
2023-03-17T21:22:30.002Z,58.13
2023-03-17T21:25:00.309Z,58.00
2023-03-17T21:27:31.415Z,58.06
2023-03-17T21:30:01.689Z,58.24
2023-03-17T21:32:32.168Z,58.39
2023-03-17T21:35:02.946Z,58.58
2023-03-17T21:37:34.147Z,58.61
2023-03-17T21:40:07.409Z,58.81
2023-03-17T21:42:37.687Z,58.96
2023-03-17T21:45:08.991Z,58.57
2023-03-17T21:47:40.821Z,58.66
2023-03-17T21:50:12.267Z,58.82
2023-03-17T21:52:42.464Z,58.79
2023-03-17T21:55:13.664Z,58.78
2023-03-17T21:57:44.002Z,58.69
2023-03-17T22:00:15.976Z,58.94
2023-03-17T22:02:46.908Z,58.74
2023-03-17T22:05:17.542Z,58.62
2023-03-17T22:07:48.304Z,58.43
2023-03-17T22:10:18.618Z,58.34
2023-03-17T22:12:49.088Z,58.33
2023-03-17T22:15:19.801Z,58.17
2023-03-17T22:17:50.022Z,58.20
2023-03-17T22:20:20.983Z,58.26
2023-03-17T22:22:51.343Z,58.54
2023-03-17T22:25:23.745Z,58.40
2023-03-17T22:27:54.318Z,58.63
2023-03-17T22:30:25.052Z,59.09
2023-03-17T22:32:55.409Z,59.34
2023-03-17T22:35:25.891Z,59.69
2023-03-17T22:37:56.441Z,59.59
2023-03-17T22:40:26.825Z,59.17
2023-03-17T22:42:58.578Z,59.47
2023-03-17T22:45:29.171Z,59.81
2023-03-17T22:47:59.325Z,59.87
2023-03-17T22:50:30.297Z,60.34
2023-03-17T22:53:00.676Z,60.65
2023-03-17T22:55:31.028Z,60.97
2023-03-17T22:58:01.322Z,61.29
2023-03-17T23:00:32.327Z,61.25
2023-03-17T23:03:03.071Z,61.22
2023-03-17T23:05:33.297Z,61.25
2023-03-17T23:08:03.626Z,61.37
2023-03-17T23:10:34.130Z,61.24
2023-03-17T23:13:05.380Z,61.08
2023-03-17T23:15:36.031Z,61.10
2023-03-17T23:18:06.598Z,61.03
2023-03-17T23:20:37.023Z,61.03
2023-03-17T23:23:07.373Z,61.27
2023-03-17T23:25:38.192Z,61.06
2023-03-17T23:28:09.054Z,61.23
2023-03-17T23:30:40.770Z,61.19
2023-03-17T23:33:10.995Z,61.25
2023-03-17T23:35:41.222Z,60.71
2023-03-17T23:38:12.122Z,60.91
2023-03-17T23:40:42.353Z,61.29
2023-03-17T23:43:13.134Z,61.10
2023-03-17T23:45:43.849Z,61.31
2023-03-17T23:48:14.143Z,61.21
2023-03-17T23:50:44.401Z,61.44
2023-03-17T23:53:14.539Z,61.60
2023-03-17T23:55:45.197Z,61.46
2023-03-17T23:58:15.915Z,61.59
